首页
METAR-TAF:

METAR-TAF

机场 :

南京禄口国际机场

南京, 中华人民共和国

纬度: 32-00N, 经度: 118-48E, 海拔: 12米

当前天气观测

该预报发布于1小时和6分钟前的07:00 UTC
风速6节,风向西转西北
温度 19°C
湿度 94%
气压 1011 hPa
能見度: 8000
多云层高于1300英尺
阴天层高于2000英尺

METAR: ZSNJ 220700Z 29003MPS 8000 BKN013 OVC020 19/18 Q1011 BECMG TL0830 BKN015

时间: 16:06 (08:06 UTC)

预报

该预报发布于5小时和4分钟前的03:02 UTC
预报有效从22日的 06点(UTC)到 23日的 06点(UTC)
风速8节,风向北转西北
能見度: 3000
多云层高于1600英尺
小雨, 轻雾

TAF: ZSNJ 220302Z 2206/2306 33004MPS 3000 -RA BR BKN016 TX23/2207Z TN16/2221Z

超过4000个机场的气象观测和天气预报(METAR&TAF报告)。

可查询的气象台以黄色和红色小点在地图上表示。

将鼠标移到小点上方,可查看气象台名称。

然后点击查看天气观测和预报。

如需切换地图:点击带黑十字的绿色按钮放大地图;点击带横线的绿色按钮缩小地图;或者点击绿色箭头查看邻近地区的地图。


METAR-TAF: